Munds Park, AZ (86017)

10:51 PM MST on December 04, 2016 (GMT -0700)
Munds Park - Alder Pl. | | Change Station

Elev 6650 ft 34.95 °N, 111.64 °W | Updated 4 minutes ago

Clear
Clear
24.7 °F
Feels Like 25 °F
N
0.0
Wind Variable Wind from NE
Gusts 1.0 mph

Today
High -- | Low -- °F
--% Chance of Precip.
Yesterday
High -- | Low -- °F
Precip. -- in
Pressure 30.04 in
Visibility 10.0 miles
Clouds Clear
Windchill 25 °F
Dew Point 18 °F
Humidity 76%
Rainfall 0.00 in
Snow Depth Not available.
7:19 AM 5:14 PM
Waxing Crescent, 28% visible
METAR KSEZ 050535Z AUTO 03008KT 10SM CLR 07/M08 A3004 RMK AO2
Pressure 30.04 in
Visibility 10.0 miles
Clouds Clear
Windchill 25 °F
Dew Point 18 °F
Humidity 76%
Rainfall 0.00 in
Snow Depth Not available.
7:19 AM 5:14 PM
Waxing Crescent, 28% visible
METAR KSEZ 050535Z AUTO 03008KT 10SM CLR 07/M08 A3004 RMK AO2

10-Day Weather Forecast

Almanac

Astronomy

Dec. 04, 2016 Rise Set
Actual Time
Civil Twilight
Nautical Twilight
Astronomical Twilight
Moon
Length of Visible Light
Length of Day
Tomorrow will be .
, % of the Moon is Illuminated

Today's Extremes

State Highs State Lows

Community

WunderPhotos

Upload Photos

1,955,770 photos uploaded!

WunderBlog® & News

Nearby

Air Quality

  Air Quality AQ Index Pollutant
Not available.

Snow Depth

Station Depth Elevation

Earthquake Activity

City Distance Mag. Time & Date
Minimum magnitude displayed is 2.5.

Coastal Water Temperatures

Place Temperature

Stations

Nearby Weather Stations

Station Location Temp. Windchill Dew Point Humidity Wind Precip. Elev Updated Type
                   

Watches & Warnings

There are currently no watches in effect.